Time;durP1;ratioP1;P1;durP2;ratioP2;P2;SDS_P1;SDS_P2;PMS_P1;PMS_P2;Temp;Humidity;BMP_temperature;BMP_pressure;BME280_temperature;BME280_humidity;BME280_pressure;Samples;Min_cycle;Max_cycle;Signal;HPM_P1;HPM_P2
2022/10/05 00:02:40;;;;;;;4.22;3.00;;;17.60;70.00;;;;;;10378536;28;20141;-57
2022/10/05 00:07:41;;;;;;;3.85;2.35;;;17.60;70.00;;;;;;10361690;28;20600;-57
2022/10/05 00:12:45;;;;;;;4.90;3.28;;;17.60;70.00;;;;;;10363133;28;20107;-57
2022/10/05 00:17:45;;;;;;;3.38;2.83;;;17.60;69.90;;;;;;10374761;28;20121;-57
2022/10/05 00:22:46;;;;;;;4.43;2.72;;;17.60;69.90;;;;;;10361364;28;20014;-57
2022/10/05 00:27:59;;;;;;;4.35;2.95;;;17.60;69.90;;;;;;10362313;28;20369;-56
2022/10/05 00:32:59;;;;;;;5.70;3.22;;;17.60;69.80;;;;;;10369097;28;20030;-57
2022/10/05 00:38:00;;;;;;;3.53;2.80;;;17.60;69.80;;;;;;10370360;28;20121;-57
2022/10/05 00:43:23;;;;;;;5.38;3.08;;;17.60;69.80;;;;;;10385136;28;20208;-56
2022/10/05 00:48:56;;;;;;;5.05;2.97;;;17.60;69.80;;;;;;10370019;28;20033;-58
2022/10/05 00:54:34;;;;;;;3.88;2.78;;;17.60;69.80;;;;;;10371560;28;20037;-57
2022/10/05 00:59:51;;;;;;;4.75;2.83;;;17.60;70.40;;;;;;10321288;28;20105;-57
2022/10/05 01:05:48;;;;;;;3.90;2.80;;;17.60;69.70;;;;;;10369008;28;20030;-58
2022/10/05 01:11:06;;;;;;;3.10;2.17;;;17.60;69.80;;;;;;10368794;28;20031;-57
2022/10/05 01:16:27;;;;;;;3.60;2.70;;;17.60;69.80;;;;;;10369038;28;20529;-57
2022/10/05 01:21:38;;;;;;;3.47;2.35;;;17.60;69.80;;;;;;10367959;28;20030;-57
2022/10/05 01:27:20;;;;;;;4.32;2.97;;;17.60;69.70;;;;;;10367512;28;20370;-58
2022/10/05 01:32:35;;;;;;;3.40;2.53;;;17.60;69.70;;;;;;10367043;28;20041;-57
2022/10/05 01:37:56;;;;;;;3.42;2.50;;;17.60;69.70;;;;;;10367947;28;20045;-57
2022/10/05 01:43:28;;;;;;;4.88;3.53;;;17.60;69.70;;;;;;10383043;28;20493;-57
2022/10/05 01:48:46;;;;;;;2.95;2.13;;;17.60;69.70;;;;;;10367701;28;20069;-58
2022/10/05 01:54:45;;;;;;;3.85;2.95;;;17.60;69.70;;;;;;10355274;28;20038;-57
2022/10/05 02:00:14;;;;;;;3.97;3.03;;;17.60;69.80;;;;;;10390216;28;20022;-58
2022/10/05 02:05:27;;;;;;;5.10;3.08;;;17.60;69.70;;;;;;10364894;28;20061;-57
2022/10/05 02:10:35;;;;;;;3.05;2.50;;;17.60;69.70;;;;;;10362837;28;20416;-57
2022/10/05 02:15:44;;;;;;;3.58;2.67;;;17.60;69.70;;;;;;10365298;28;20014;-57
2022/10/05 02:20:46;;;;;;;4.10;2.90;;;17.60;69.70;;;;;;10364954;28;20030;-58
2022/10/05 02:25:50;;;;;;;4.63;2.60;;;17.60;69.70;;;;;;10365931;28;20033;-58
2022/10/05 02:31:07;;;;;;;3.95;3.22;;;17.60;69.70;;;;;;10364599;28;20473;-57
2022/10/05 02:36:17;;;;;;;3.70;3.00;;;17.60;69.70;;;;;;10365426;28;20025;-58
2022/10/05 02:41:41;;;;;;;3.85;2.85;;;17.60;69.70;;;;;;10364365;28;20049;-58
2022/10/05 02:46:51;;;;;;;4.25;2.60;;;17.60;69.80;;;;;;10364510;28;20398;-58
2022/10/05 02:52:31;;;;;;;4.47;3.05;;;17.60;69.80;;;;;;10363329;28;20063;-57
2022/10/05 02:57:56;;;;;;;4.07;2.93;;;17.60;69.80;;;;;;10372778;28;20462;-57
2022/10/05 03:03:31;;;;;;;3.92;3.10;;;17.50;69.70;;;;;;10364035;28;20018;-57
2022/10/05 03:09:00;;;;;;;4.03;2.90;;;17.50;69.70;;;;;;10363534;28;20101;-58
2022/10/05 03:14:31;;;;;;;4.70;3.35;;;17.50;69.70;;;;;;10356790;28;20037;-57
2022/10/05 03:19:59;;;;;;;4.18;3.47;;;17.50;69.70;;;;;;10363181;28;20053;-57
2022/10/05 03:25:44;;;;;;;3.67;2.80;;;17.50;69.70;;;;;;10362875;28;20049;-57
2022/10/05 03:31:14;;;;;;;4.68;3.40;;;17.60;69.70;;;;;;10355879;28;20053;-58
2022/10/05 03:36:40;;;;;;;6.90;3.45;;;17.50;69.70;;;;;;10362925;28;20203;-58
2022/10/05 03:42:01;;;;;;;4.47;3.08;;;17.50;69.70;;;;;;10363683;28;20046;-57
2022/10/05 03:47:35;;;;;;;3.35;2.80;;;17.50;69.70;;;;;;10346949;28;20033;-57
2022/10/05 03:52:43;;;;;;;4.28;2.85;;;17.50;69.70;;;;;;10375402;28;20095;-57
2022/10/05 03:57:46;;;;;;;4.32;3.30;;;17.50;69.70;;;;;;10370068;28;20025;-58
2022/10/05 04:03:15;;;;;;;4.35;3.35;;;17.50;69.70;;;;;;10363308;28;20454;-57
2022/10/05 04:09:08;;;;;;;5.30;3.28;;;17.50;70.30;;;;;;10386920;28;20060;-58
2022/10/05 04:14:16;;;;;;;3.95;2.83;;;17.50;69.70;;;;;;10341088;28;20075;-57
2022/10/05 04:19:32;;;;;;;3.88;2.70;;;17.50;69.70;;;;;;10368211;28;20018;-57
2022/10/05 04:24:52;;;;;;;5.07;2.75;;;17.50;69.70;;;;;;10364083;28;20029;-58
2022/10/05 04:30:17;;;;;;;4.10;2.80;;;17.50;69.70;;;;;;10366366;28;20326;-57
2022/10/05 04:35:54;;;;;;;3.70;2.65;;;17.50;69.70;;;;;;10367523;28;20018;-57
2022/10/05 04:41:22;;;;;;;4.13;2.70;;;17.50;69.70;;;;;;10366180;28;20689;-57
2022/10/05 04:46:50;;;;;;;3.65;2.60;;;17.50;69.70;;;;;;10368225;28;20052;-57
2022/10/05 04:52:06;;;;;;;4.47;3.03;;;17.50;69.70;;;;;;10367029;28;20053;-57
2022/10/05 04:57:40;;;;;;;4.25;3.03;;;17.50;69.70;;;;;;10368239;28;20053;-56
2022/10/05 05:02:55;;;;;;;5.82;3.67;;;17.50;69.70;;;;;;10351362;28;20129;-57
2022/10/05 05:08:46;;;;;;;5.90;3.10;;;17.50;70.10;;;;;;10365088;28;20044;-57
2022/10/05 05:14:11;;;;;;;6.15;3.40;;;17.50;70.60;;;;;;10364760;28;20057;-58
2022/10/05 05:19:58;;;;;;;8.40;3.03;;;17.70;70.70;;;;;;10367801;28;20049;-58
2022/10/05 05:25:24;;;;;;;9.85;3.92;;;17.70;71.30;;;;;;10369294;28;20010;-56
2022/10/05 05:31:04;;;;;;;6.57;3.22;;;17.90;71.60;;;;;;10368491;28;20030;-57
2022/10/05 05:36:47;;;;;;;10.07;3.17;;;17.90;72.50;;;;;;10351336;28;20045;-56
2022/10/05 05:42:15;;;;;;;6.43;3.33;;;17.90;72.60;;;;;;10366761;28;20054;-55
2022/10/05 05:47:30;;;;;;;10.70;3.63;;;17.90;72.80;;;;;;10364303;28;20034;-56
2022/10/05 05:52:57;;;;;;;8.98;3.75;;;17.90;72.90;;;;;;10365096;28;20116;-56
2022/10/05 05:58:19;;;;;;;9.23;3.38;;;17.90;72.70;;;;;;10372701;28;20098;-55
2022/10/05 06:03:39;;;;;;;11.75;3.35;;;17.80;72.70;;;;;;10364107;28;20104;-54
2022/10/05 06:08:51;;;;;;;10.27;3.92;;;17.80;72.50;;;;;;10359267;28;20046;-55
2022/10/05 06:13:58;;;;;;;11.60;4.40;;;17.80;72.70;;;;;;10366538;28;20057;-56
2022/10/05 06:19:08;;;;;;;17.35;4.05;;;17.80;72.70;;;;;;10364796;28;20014;-58
2022/10/05 06:24:22;;;;;;;12.50;4.00;;;17.80;72.60;;;;;;10364392;28;20030;-56
2022/10/05 06:29:32;;;;;;;14.23;4.70;;;17.90;72.20;;;;;;10363849;28;20029;-57
2022/10/05 06:35:04;;;;;;;31.58;5.25;;;17.90;72.00;;;;;;10358568;28;20080;-58
2022/10/05 06:40:13;;;;;;;37.53;7.35;;;17.80;72.30;;;;;;10377893;28;20060;-60
2022/10/05 06:45:51;;;;;;;33.03;6.50;;;17.70;72.60;;;;;;10363988;28;20542;-60
2022/10/05 06:51:04;;;;;;;29.88;6.05;;;17.70;72.80;;;;;;10356365;28;20030;-61
2022/10/05 06:56:13;;;;;;;24.27;6.38;;;17.70;72.60;;;;;;10373370;28;20046;-61
2022/10/05 07:01:33;;;;;;;27.52;6.05;;;17.70;72.60;;;;;;10361782;28;20108;-61
2022/10/05 07:06:42;;;;;;;25.55;6.60;;;17.70;72.80;;;;;;10362605;28;20033;-60
2022/10/05 07:12:25;;;;;;;32.57;7.03;;;17.70;73.00;;;;;;10361387;28;20554;-60
2022/10/05 07:18:12;;;;;;;28.88;5.82;;;17.70;72.90;;;;;;10361540;28;20022;-61
2022/10/05 07:23:48;;;;;;;30.45;6.43;;;17.70;72.70;;;;;;10364444;28;20535;-60
2022/10/05 07:29:16;;;;;;;22.95;5.75;;;17.70;72.70;;;;;;10362832;28;20535;-59
2022/10/05 07:34:51;;;;;;;17.35;5.78;;;17.70;72.60;;;;;;10361483;28;20063;-59
2022/10/05 07:40:18;;;;;;;24.67;5.90;;;17.60;72.50;;;;;;10360059;28;20046;-59
2022/10/05 07:46:12;;;;;;;32.15;6.45;;;17.70;72.60;;;;;;10361579;28;20022;-56
2022/10/05 07:51:40;;;;;;;31.08;6.53;;;17.70;72.50;;;;;;10309586;28;20077;-59
2022/10/05 07:56:44;;;;;;;21.02;5.13;;;17.70;73.20;;;;;;10392544;28;20116;-58
2022/10/05 08:01:51;;;;;;;17.85;5.40;;;17.70;72.80;;;;;;10362155;28;20109;-57
2022/10/05 08:06:59;;;;;;;25.50;6.18;;;17.70;73.20;;;;;;10361912;28;20573;-58
2022/10/05 08:12:25;;;;;;;21.73;5.90;;;17.70;73.40;;;;;;10363439;28;20061;-58
2022/10/05 08:17:51;;;;;;;16.98;6.45;;;17.70;73.30;;;;;;10360629;28;20370;-57
2022/10/05 08:23:28;;;;;;;24.20;6.82;;;17.80;73.20;;;;;;10360966;28;20370;-57
2022/10/05 08:28:37;;;;;;;32.58;7.18;;;17.70;73.20;;;;;;10374350;28;20046;-55
2022/10/05 08:34:19;;;;;;;20.58;6.78;;;17.70;72.80;;;;;;10360878;28;20022;-55
2022/10/05 08:39:23;;;;;;;20.35;6.13;;;17.70;72.60;;;;;;10360611;28;20044;-54
2022/10/05 08:44:58;;;;;;;18.95;6.05;;;17.60;72.80;;;;;;10358298;28;20026;-55
2022/10/05 08:50:40;;;;;;;14.82;5.70;;;17.70;72.70;;;;;;10347478;28;20041;-54
2022/10/05 08:56:12;;;;;;;24.17;6.55;;;17.60;72.60;;;;;;10369558;28;20040;-53
2022/10/05 09:01:49;;;;;;;12.02;4.78;;;17.60;72.50;;;;;;10365305;28;20088;-55
2022/10/05 09:07:34;;;;;;;11.50;5.18;;;17.60;72.50;;;;;;10369908;28;20084;-55
2022/10/05 09:12:59;;;;;;;9.70;4.57;;;17.70;72.40;;;;;;10367028;28;20382;-55
2022/10/05 09:18:34;;;;;;;11.00;4.53;;;17.60;72.30;;;;;;10368696;28;20109;-54
2022/10/05 09:23:43;;;;;;;12.13;5.57;;;17.60;72.20;;;;;;10360586;28;20033;-56
2022/10/05 09:29:48;;;;;;;10.10;5.22;;;17.60;72.40;;;;;;10366908;28;20068;-54
2022/10/05 09:34:54;;;;;;;10.63;5.53;;;17.60;72.30;;;;;;10339307;28;20046;-55
2022/10/05 09:40:59;;;;;;;11.35;4.65;;;17.60;72.30;;;;;;10380392;28;20116;-55
2022/10/05 09:46:34;;;;;;;8.88;3.97;;;17.60;72.00;;;;;;10364850;28;20049;-54
2022/10/05 09:52:31;;;;;;;9.57;4.10;;;17.60;72.00;;;;;;10365204;28;20507;-55
2022/10/05 09:58:13;;;;;;;6.35;4.07;;;17.60;72.00;;;;;;10372439;28;20034;-56
2022/10/05 10:03:44;;;;;;;8.35;4.22;;;17.60;72.00;;;;;;10364769;28;20057;-54
2022/10/05 10:09:27;;;;;;;8.75;4.15;;;17.60;71.90;;;;;;10367520;28;20022;-54
2022/10/05 10:15:06;;;;;;;9.13;4.07;;;17.60;71.90;;;;;;10367680;28;20709;-55
2022/10/05 10:20:55;;;;;;;6.70;4.30;;;17.60;71.80;;;;;;10366102;28;20022;-56
2022/10/05 10:26:41;;;;;;;8.52;4.05;;;17.60;71.80;;;;;;10366726;28;20105;-55
2022/10/05 10:32:12;;;;;;;7.47;3.90;;;17.60;71.80;;;;;;10366015;28;20501;-55
2022/10/05 10:37:51;;;;;;;8.75;4.35;;;17.60;71.80;;;;;;10364231;28;20072;-55
2022/10/05 10:43:13;;;;;;;9.13;4.27;;;17.70;71.80;;;;;;10362398;28;20109;-55
2022/10/05 10:48:29;;;;;;;6.25;3.47;;;17.70;71.90;;;;;;10363436;28;20037;-54
2022/10/05 10:53:56;;;;;;;5.95;3.60;;;17.70;72.00;;;;;;10364089;28;20040;-54
2022/10/05 10:59:40;;;;;;;8.27;3.92;;;17.70;71.90;;;;;;10364200;28;20036;-55
2022/10/05 11:05:11;;;;;;;5.65;3.53;;;17.70;71.70;;;;;;10361268;28;20029;-55
2022/10/05 11:10:46;;;;;;;6.13;3.80;;;17.70;71.80;;;;;;10360535;28;20133;-56
2022/10/05 11:16:06;;;;;;;6.97;3.95;;;17.60;71.70;;;;;;10360048;28;20253;-55
2022/10/05 11:21:21;;;;;;;6.63;3.87;;;17.60;71.80;;;;;;10359400;28;20374;-54
2022/10/05 11:26:57;;;;;;;5.47;3.33;;;17.60;71.80;;;;;;10360755;28;20022;-55
2022/10/05 11:32:44;;;;;;;5.68;3.33;;;17.60;71.80;;;;;;10356797;28;20061;-55
2022/10/05 11:38:35;;;;;;;7.15;4.35;;;17.70;71.70;;;;;;10358791;28;20057;-55
2022/10/05 11:44:18;;;;;;;6.30;3.20;;;17.70;71.70;;;;;;10348275;28;20042;-55
2022/10/05 11:49:31;;;;;;;6.15;3.25;;;17.70;71.80;;;;;;10330544;28;20140;-55
2022/10/05 11:54:57;;;;;;;6.20;3.60;;;17.60;71.80;;;;;;10362372;28;20092;-56
2022/10/05 12:00:30;;;;;;;5.10;3.80;;;17.70;71.80;;;;;;10364942;28;20025;-55
2022/10/05 12:06:25;;;;;;;7.45;3.50;;;17.70;71.90;;;;;;10362048;28;20026;-54
2022/10/05 12:11:54;;;;;;;5.50;3.35;;;17.70;71.80;;;;;;10339314;28;20406;-54
2022/10/05 12:17:31;;;;;;;5.13;3.27;;;17.70;71.80;;;;;;10363294;28;20064;-55
2022/10/05 12:22:48;;;;;;;4.72;3.30;;;17.70;71.80;;;;;;10361863;28;20469;-54
2022/10/05 12:27:55;;;;;;;5.95;3.30;;;17.70;71.70;;;;;;10368598;28;20017;-55
2022/10/05 12:33:17;;;;;;;4.88;3.00;;;17.70;71.80;;;;;;10370604;28;20121;-55
2022/10/05 12:39:03;;;;;;;6.53;3.20;;;17.70;71.80;;;;;;10367838;28;20496;-53
2022/10/05 12:44:19;;;;;;;7.32;4.45;;;17.70;71.70;;;;;;10364512;28;20042;-55
2022/10/05 12:50:01;;;;;;;12.52;3.25;;;17.70;72.30;;;;;;10369484;28;20022;-54
2022/10/05 12:55:14;;;;;;;8.88;3.30;;;17.90;72.60;;;;;;10368519;28;20053;-56
2022/10/05 13:00:18;;;;;;;8.45;3.58;;;17.90;72.90;;;;;;10369862;28;20014;-55
2022/10/05 13:05:45;;;;;;;12.18;6.30;;;17.90;73.10;;;;;;10366889;28;20028;-60
2022/10/05 13:11:15;;;;;;;17.08;5.05;;;17.90;72.60;;;;;;10364715;28;20116;-59
2022/10/05 13:16:29;;;;;;;23.08;5.53;;;17.90;72.60;;;;;;10369574;28;20028;-58
2022/10/05 13:21:44;;;;;;;20.83;5.97;;;17.80;72.80;;;;;;10368472;28;20058;-59
2022/10/05 13:26:51;;;;;;;21.10;6.18;;;17.80;73.00;;;;;;10368464;28;20032;-60
2022/10/05 13:32:16;;;;;;;30.63;8.02;;;17.80;73.10;;;;;;10370752;28;20092;-60
2022/10/05 13:37:42;;;;;;;31.35;6.75;;;17.90;73.50;;;;;;10367027;28;20018;-56
2022/10/05 13:43:06;;;;;;;13.55;5.00;;;17.90;73.30;;;;;;10367836;28;20117;-58
2022/10/05 13:48:34;;;;;;;25.60;6.07;;;18.00;73.20;;;;;;10366559;28;20513;-58
2022/10/05 13:54:03;;;;;;;14.75;5.50;;;18.00;73.20;;;;;;10366851;28;20057;-59
2022/10/05 13:59:44;;;;;;;18.25;5.60;;;17.90;73.20;;;;;;10373703;28;20022;-59
2022/10/05 14:04:57;;;;;;;14.70;5.53;;;17.90;73.20;;;;;;10365717;28;20014;-59
2022/10/05 14:09:58;;;;;;;12.02;5.40;;;17.90;73.10;;;;;;10366132;28;20029;-59
2022/10/05 14:15:28;;;;;;;8.27;4.32;;;17.90;73.20;;;;;;10365360;28;20100;-59
2022/10/05 14:20:33;;;;;;;8.57;4.65;;;17.90;73.10;;;;;;10364712;28;20053;-58
2022/10/05 14:25:52;;;;;;;20.45;5.15;;;17.90;73.00;;;;;;10365086;28;20484;-58
2022/10/05 14:31:09;;;;;;;17.58;4.75;;;17.90;73.60;;;;;;10364214;28;20121;-58
2022/10/05 14:36:17;;;;;;;18.30;5.75;;;17.90;72.90;;;;;;10376101;28;20105;-58
2022/10/05 14:41:21;;;;;;;22.63;5.35;;;17.90;73.10;;;;;;10372802;28;20076;-58
2022/10/05 14:46:26;;;;;;;13.48;4.43;;;17.90;73.00;;;;;;10378499;28;20028;-59
2022/10/05 14:51:30;;;;;;;15.85;5.80;;;17.90;73.80;;;;;;10380287;28;20034;-58
2022/10/05 14:56:42;;;;;;;12.63;5.47;;;17.90;73.60;;;;;;10365223;28;20053;-58
2022/10/05 15:01:56;;;;;;;9.95;4.75;;;17.90;72.80;;;;;;10364999;28;20080;-57
2022/10/05 15:07:31;;;;;;;16.35;5.57;;;17.90;73.00;;;;;;10363394;28;20719;-59
2022/10/05 15:12:39;;;;;;;24.23;5.20;;;17.90;73.10;;;;;;10363728;28;20494;-58
2022/10/05 15:17:51;;;;;;;17.65;5.22;;;17.90;73.00;;;;;;10362819;28;20129;-57
2022/10/05 15:23:15;;;;;;;19.67;5.70;;;18.00;73.70;;;;;;10364319;28;20053;-60
2022/10/05 15:28:47;;;;;;;16.52;4.72;;;18.00;73.40;;;;;;10362582;28;20125;-60
2022/10/05 15:34:00;;;;;;;17.95;5.80;;;18.00;73.60;;;;;;10362202;28;20022;-59
2022/10/05 15:39:27;;;;;;;18.17;7.85;;;18.10;73.20;;;;;;10363066;28;20019;-58
2022/10/05 15:45:10;;;;;;;30.83;13.77;;;18.20;72.60;;;;;;10363511;28;20053;-59
2022/10/05 15:50:26;;;;;;;25.17;20.17;;;18.30;73.10;;;;;;10377526;28;20496;-59
2022/10/05 15:55:48;;;;;;;19.92;14.40;;;18.50;76.30;;;;;;10360664;28;20018;-57
2022/10/05 16:01:03;;;;;;;21.45;12.93;;;18.50;73.20;;;;;;10367119;28;20417;-61
2022/10/05 16:12:07;;;;;;;25.40;10.98;;;18.80;75.70;;;;;;10370775;28;20042;-60
2022/10/05 16:17:26;;;;;;;;;;;18.80;74.10;;;;;;10369671;28;20084;-60
2022/10/05 16:22:58;;;;;;;21.90;9.23;;;18.70;74.50;;;;;;10371044;28;19910;-60
2022/10/05 16:28:28;;;;;;;16.80;7.97;;;18.80;74.40;;;;;;10365758;28;20109;-60
2022/10/05 16:34:16;;;;;;;22.20;7.88;;;18.80;74.50;;;;;;10392976;28;20388;-61
2022/10/05 16:39:50;;;;;;;17.98;7.05;;;18.80;74.30;;;;;;10357875;28;20024;-60
2022/10/05 16:44:56;;;;;;;18.48;7.40;;;18.80;74.20;;;;;;10369023;28;20124;-58
2022/10/05 16:50:16;;;;;;;24.67;8.32;;;18.70;74.30;;;;;;10370080;28;20030;-60
2022/10/05 16:55:30;;;;;;;;;;;18.60;74.20;;;;;;10386154;28;20497;-60
2022/10/05 17:00:50;;;;;;;13.82;5.80;;;18.60;73.70;;;;;;10400224;28;20536;-57
2022/10/05 17:06:28;;;;;;;16.42;4.88;;;18.50;73.50;;;;;;10367418;28;20041;-61
2022/10/05 17:11:59;;;;;;;12.05;4.20;;;18.50;72.80;;;;;;10367606;28;20366;-59
2022/10/05 17:17:57;;;;;;;9.95;3.92;;;18.50;72.50;;;;;;10369022;28;20109;-60
2022/10/05 17:23:21;;;;;;;10.10;3.65;;;18.40;72.90;;;;;;10282450;28;20026;-59
2022/10/05 17:28:56;;;;;;;7.70;3.35;;;18.30;72.70;;;;;;10325225;28;20053;-59
2022/10/05 17:34:25;;;;;;;11.02;3.90;;;18.30;72.50;;;;;;10365121;28;20524;-60
2022/10/05 17:39:51;;;;;;;11.45;3.05;;;18.40;73.20;;;;;;10362760;28;20029;-60
2022/10/05 17:45:19;;;;;;;13.35;3.22;;;18.40;73.00;;;;;;10362481;28;20512;-60
2022/10/05 17:56:04;;;;;;;16.63;4.63;;;18.30;73.10;;;;;;10366182;28;20030;-58
2022/10/05 18:01:26;;;;;;;11.90;3.70;;;18.30;73.80;;;;;;10366864;28;20101;-59
2022/10/05 18:06:36;;;;;;;6.82;3.45;;;18.30;73.90;;;;;;10365616;28;20135;-59
2022/10/05 18:11:41;;;;;;;15.10;3.35;;;18.30;73.50;;;;;;10362211;28;20030;-58
2022/10/05 18:17:34;;;;;;;12.60;3.88;;;18.30;73.80;;;;;;10364078;28;20661;-59
2022/10/05 18:22:35;;;;;;;12.82;4.13;;;18.30;73.80;;;;;;10348772;28;20646;-59
2022/10/05 18:28:44;;;;;;;14.88;3.33;;;18.30;73.90;;;;;;10364533;28;20057;-59
2022/10/05 18:33:52;;;;;;;10.40;2.53;;;18.30;73.70;;;;;;10223513;29;20035;-58
2022/10/05 18:39:12;;;;;;;6.85;3.20;;;18.30;73.90;;;;;;10347189;28;20058;-58
2022/10/05 18:44:52;;;;;;;7.68;3.38;;;18.30;73.80;;;;;;10359528;28;20050;-59
2022/10/05 18:50:41;;;;;;;6.43;2.53;;;18.30;73.80;;;;;;10358119;28;20543;-58
2022/10/05 18:55:52;;;;;;;8.18;2.88;;;18.30;73.90;;;;;;10336375;28;20045;-58
2022/10/05 19:01:45;;;;;;;10.68;3.22;;;18.20;73.80;;;;;;10370911;28;20014;-58
2022/10/05 19:07:08;;;;;;;10.45;3.75;;;18.30;73.70;;;;;;10367621;28;20050;-58
2022/10/05 19:12:39;;;;;;;10.57;2.75;;;18.20;73.80;;;;;;10364524;28;20089;-58
2022/10/05 19:18:21;;;;;;;18.55;3.55;;;18.30;73.80;;;;;;10379351;28;20054;-58
2022/10/05 19:23:50;;;;;;;7.28;2.47;;;18.30;73.90;;;;;;10353470;28;20117;-58
2022/10/05 19:29:05;;;;;;;9.93;3.22;;;18.30;74.00;;;;;;10362636;28;20100;-58
2022/10/05 19:34:31;;;;;;;8.50;2.85;;;18.30;73.90;;;;;;10362085;28;20589;-57
2022/10/05 19:39:52;;;;;;;8.65;3.17;;;18.30;73.90;;;;;;10360855;28;20014;-58
2022/10/05 19:44:58;;;;;;;10.30;3.80;;;18.30;73.90;;;;;;10362288;28;20095;-59
2022/10/05 19:50:27;;;;;;;7.45;2.40;;;18.30;73.90;;;;;;10362774;28;20018;-59
2022/10/05 19:55:38;;;;;;;5.00;2.60;;;18.30;74.00;;;;;;10360411;28;20022;-59
2022/10/05 20:00:41;;;;;;;10.95;3.53;;;18.30;74.00;;;;;;10386329;28;20436;-59
2022/10/05 20:05:42;;;;;;;5.68;2.63;;;18.30;73.80;;;;;;10378017;28;20030;-58
2022/10/05 20:10:44;;;;;;;6.07;2.70;;;18.30;73.70;;;;;;10359009;28;20054;-59
2022/10/05 20:21:59;;;;;;;6.47;2.40;;;18.20;73.60;;;;;;10348601;28;20409;-59
2022/10/05 20:27:04;;;;;;;6.85;2.88;;;18.20;73.60;;;;;;10360420;28;20473;-58
2022/10/05 20:32:14;;;;;;;6.75;2.58;;;18.20;73.50;;;;;;10362604;28;20038;-58
2022/10/05 20:37:17;;;;;;;4.60;2.40;;;18.20;73.50;;;;;;10362636;28;20102;-58
2022/10/05 20:42:19;;;;;;;4.03;2.60;;;18.20;73.40;;;;;;10360844;28;20049;-59
2022/10/05 20:47:21;;;;;;;4.32;2.83;;;18.20;73.30;;;;;;10365827;28;20022;-59
2022/10/05 20:52:22;;;;;;;3.88;2.33;;;18.20;73.80;;;;;;10369226;28;20038;-57
2022/10/05 20:57:23;;;;;;;5.65;2.53;;;18.20;73.20;;;;;;10390527;28;20093;-57
2022/10/05 21:02:24;;;;;;;6.13;2.50;;;18.20;73.10;;;;;;10367853;28;20029;-58
2022/10/05 21:07:25;;;;;;;4.80;1.90;;;18.20;73.10;;;;;;10369509;28;20022;-59
2022/10/05 21:12:26;;;;;;;5.78;3.70;;;18.20;73.10;;;;;;10369060;28;20469;-58
2022/10/05 21:17:26;;;;;;;5.53;2.40;;;18.20;73.10;;;;;;10367474;28;20025;-58
2022/10/05 21:22:27;;;;;;;6.68;2.90;;;18.20;73.00;;;;;;10367817;28;20054;-57
2022/10/05 21:27:28;;;;;;;3.00;1.90;;;18.10;73.00;;;;;;10368786;28;20156;-58
2022/10/05 21:32:28;;;;;;;5.63;2.00;;;18.20;73.00;;;;;;10368413;28;20512;-58
2022/10/05 21:37:29;;;;;;;4.88;2.05;;;18.20;73.00;;;;;;10350640;28;20134;-57
2022/10/05 21:42:30;;;;;;;3.53;2.38;;;18.20;73.00;;;;;;10366918;28;20184;-57
2022/10/05 21:47:30;;;;;;;3.45;2.30;;;18.10;72.90;;;;;;10366661;28;20409;-57
2022/10/05 21:52:34;;;;;;;3.22;2.00;;;18.10;72.90;;;;;;10379749;28;20045;-58
2022/10/05 21:57:36;;;;;;;3.40;2.30;;;18.10;72.80;;;;;;10373428;28;20405;-59
2022/10/05 22:02:36;;;;;;;4.10;2.38;;;18.10;72.80;;;;;;10365990;28;20109;-58
2022/10/05 22:07:37;;;;;;;2.85;1.73;;;18.10;72.70;;;;;;10377251;28;20094;-58
2022/10/05 22:12:38;;;;;;;2.85;2.17;;;18.10;72.70;;;;;;10384622;28;20145;-58
2022/10/05 22:17:39;;;;;;;4.10;2.33;;;18.10;72.70;;;;;;10364462;28;20077;-59
2022/10/05 22:22:40;;;;;;;2.75;1.95;;;18.10;72.70;;;;;;10365735;28;20029;-58
2022/10/05 22:27:42;;;;;;;4.95;1.83;;;18.10;72.60;;;;;;10365476;28;20441;-57
2022/10/05 22:32:43;;;;;;;3.22;1.95;;;18.10;72.60;;;;;;10381479;28;20100;-57
2022/10/05 22:37:44;;;;;;;3.83;2.00;;;18.10;72.60;;;;;;10364302;28;20025;-58
2022/10/05 22:42:45;;;;;;;5.97;1.90;;;18.10;72.60;;;;;;10363982;28;20053;-57
2022/10/05 22:47:45;;;;;;;3.90;2.20;;;18.10;72.60;;;;;;10364017;28;20410;-57
2022/10/05 22:52:49;;;;;;;2.80;1.58;;;18.10;72.60;;;;;;10365502;28;20505;-58
2022/10/05 22:57:49;;;;;;;3.05;2.00;;;18.10;72.60;;;;;;10371538;28;20016;-57
2022/10/05 23:02:50;;;;;;;2.72;1.67;;;18.10;72.50;;;;;;10363147;28;20022;-58
2022/10/05 23:07:51;;;;;;;3.40;1.80;;;18.10;72.50;;;;;;10363997;28;20065;-58
2022/10/05 23:12:56;;;;;;;4.10;2.20;;;18.10;72.50;;;;;;10364270;28;20081;-58
2022/10/05 23:17:56;;;;;;;2.63;1.50;;;18.10;72.50;;;;;;10364293;28;20026;-58
2022/10/05 23:22:58;;;;;;;3.70;2.03;;;18.10;72.50;;;;;;10362828;28;20045;-58
2022/10/05 23:28:01;;;;;;;1.65;1.00;;;18.10;72.40;;;;;;10376140;28;20038;-58
2022/10/05 23:33:01;;;;;;;2.35;1.40;;;18.10;73.00;;;;;;10364083;28;20062;-58
2022/10/05 23:38:02;;;;;;;2.45;1.63;;;18.10;72.30;;;;;;10364198;28;20097;-58
2022/10/05 23:43:04;;;;;;;2.63;1.42;;;18.10;72.30;;;;;;10363440;28;20054;-58
2022/10/05 23:48:04;;;;;;;3.30;1.63;;;18.10;72.20;;;;;;10362437;28;20466;-58
2022/10/05 23:53:05;;;;;;;2.13;1.10;;;18.10;72.30;;;;;;10363722;28;20058;-59
2022/10/05 23:58:06;;;;;;;2.13;1.30;;;18.10;72.20;;;;;;10369639;28;20330;-58
